Time;durP1;ratioP1;P1;durP2;ratioP2;P2;SDS_P1;SDS_P2;PMS_P1;PMS_P2;Temp;Humidity;BMP_temperature;BMP_pressure;BME280_temperature;BME280_humidity;BME280_pressure;Samples;Min_cycle;Max_cycle;Signal;HPM_P1;HPM_P2
2021/09/11 00:01:23;;;;;;;;;;;;;;;;;;5072675;28;19913;-75
2021/09/11 00:03:48;;;;;;;;;;;;;;;;;;5038810;28;19913;-73
2021/09/11 00:06:15;;;;;;;;;;;;;;;;;;5047915;28;19922;-74
2021/09/11 00:08:41;;;;;;;;;;;;;;;;;;5036103;28;20260;-71
2021/09/11 00:11:06;;;;;;;;;;;;;;;;;;5073704;28;19960;-71
2021/09/11 00:13:31;;;;;;;;;;;;;;;;;;5045565;28;19978;-75
2021/09/11 00:15:59;;;;;;;;;;;;;;;;;;5040211;28;19913;-73
2021/09/11 00:18:24;;;;;;;;;;;;;;;;;;5043343;28;19988;-73
2021/09/11 00:20:49;;;;;;;;;;;;;;;;;;5040028;28;19914;-73
2021/09/11 00:23:14;;;;;;;;;;;;;;;;;;5038116;28;19913;-73
2021/09/11 00:25:40;;;;;;;;;;;;;;;;;;5035125;28;19912;-73
2021/09/11 00:28:05;;;;;;;;;;;;;;;;;;5055844;28;19990;-71
2021/09/11 00:30:30;;;;;;;;;;;;;;;;;;5041676;28;19921;-74
2021/09/11 00:32:55;;;;;;;;;;;;;;;;;;5037688;28;19905;-72
2021/09/11 00:35:21;;;;;;;;;;;;;;;;;;5038562;28;19996;-73
2021/09/11 00:37:46;;;;;;;;;;;;;;;;;;5044873;28;19920;-73
2021/09/11 00:40:11;;;;;;;;;;;;;;;;;;5037767;28;19914;-73
2021/09/11 00:42:37;;;;;;;;;;;;;;;;;;5042529;28;19941;-74
2021/09/11 00:45:02;;;;;;;;;;;;;;;;;;5038438;28;19905;-72
2021/09/11 00:47:28;;;;;;;;;;;;;;;;;;5040049;28;19965;-70
2021/09/11 00:49:53;;;;;;;;;;;;;;;;;;5044718;28;19930;-73
2021/09/11 00:52:18;;;;;;;;;;;;;;;;;;5040801;28;19932;-73
2021/09/11 00:54:44;;;;;;;;;;;;;;;;;;5060295;28;19917;-73
2021/09/11 00:57:09;;;;;;;;;;;;;;;;;;5037285;28;19929;-73
2021/09/11 00:59:36;;;;;;;;;;;;;;;;;;5039423;28;19936;-75
2021/09/11 01:02:01;;;;;;;;;;;;;;;;;;5045353;28;19913;-73
2021/09/11 01:04:27;;;;;;;;;;;;;;;;;;5038639;28;19958;-73
2021/09/11 01:06:52;;;;;;;;;;;;;;;;;;5061984;28;19971;-72
2021/09/11 01:09:17;;;;;;;;;;;;;;;;;;5036704;28;19948;-73
2021/09/11 01:11:42;;;;;;;;;;;;;;;;;;5071238;28;19972;-73
2021/09/11 01:14:08;;;;;;;;;;;;;;;;;;5060445;28;19905;-73
2021/09/11 01:16:33;;;;;;;;;;;;;;;;;;5040025;28;19917;-72
2021/09/11 01:18:58;;;;;;;;;;;;;;;;;;5045886;28;19905;-74
2021/09/11 01:21:23;;;;;;;;;;;;;;;;;;5044125;28;19932;-73
2021/09/11 01:23:48;;;;;;;;;;;;;;;;;;5055049;28;19936;-72
2021/09/11 01:26:16;;;;;;;;;;;;;;;;;;5044464;28;19921;-71
2021/09/11 01:28:41;;;;;;;;;;;;;;;;;;5038230;28;19921;-72
2021/09/11 01:31:07;;;;;;;;;;;;;;;;;;5044143;28;19913;-73
2021/09/11 01:33:32;;;;;;;;;;;;;;;;;;5039538;28;19988;-73
2021/09/11 01:35:57;;;;;;;;;;;;;;;;;;5038533;28;19936;-73
2021/09/11 01:38:22;;;;;;;;;;;;;;;;;;5045983;28;19911;-74
2021/09/11 01:40:47;;;;;;;;;;;;;;;;;;5039897;28;19905;-74
2021/09/11 01:43:15;;;;;;;;;;;;;;;;;;5060311;28;19912;-69
2021/09/11 01:45:40;;;;;;;;;;;;;;;;;;5038967;28;19925;-73
2021/09/11 01:48:06;;;;;;;;;;;;;;;;;;5039060;28;19936;-72
2021/09/11 01:50:31;;;;;;;;;;;;;;;;;;5041975;28;19920;-74
2021/09/11 01:52:56;;;;;;;;;;;;;;;;;;5037122;28;19940;-72
2021/09/11 01:55:24;;;;;;;;;;;;;;;;;;5058965;28;19901;-74
2021/09/11 01:57:49;;;;;;;;;;;;;;;;;;5036392;28;19913;-72
2021/09/11 02:00:14;;;;;;;;;;;;;;;;;;5036598;28;19920;-74
2021/09/11 02:02:39;;;;;;;;;;;;;;;;;;5041543;28;20180;-69
2021/09/11 02:05:04;;;;;;;;;;;;;;;;;;5039401;28;19921;-73
2021/09/11 02:07:30;;;;;;;;;;;;;;;;;;5040954;28;19920;-73
2021/09/11 02:09:55;;;;;;;;;;;;;;;;;;5036188;28;19916;-73
2021/09/11 02:12:20;;;;;;;;;;;;;;;;;;5069975;28;19924;-74
2021/09/11 02:14:45;;;;;;;;;;;;;;;;;;5043679;28;19981;-75
2021/09/11 02:17:11;;;;;;;;;;;;;;;;;;5040039;28;19906;-72
2021/09/11 02:19:36;;;;;;;;;;;;;;;;;;5058633;28;19909;-73
2021/09/11 02:22:02;;;;;;;;;;;;;;;;;;5038396;28;19916;-74
2021/09/11 02:24:29;;;;;;;;;;;;;;;;;;5036927;28;19906;-72
2021/09/11 02:26:54;;;;;;;;;;;;;;;;;;5043832;28;20324;-72
2021/09/11 02:29:19;;;;;;;;;;;;;;;;;;5038596;28;19959;-73
2021/09/11 02:31:45;;;;;;;;;;;;;;;;;;5075293;28;19929;-72
2021/09/11 02:34:10;;;;;;;;;;;;;;;;;;5040296;28;19905;-73
2021/09/11 02:36:35;;;;;;;;;;;;;;;;;;5037468;28;19909;-74
2021/09/11 02:39:03;;;;;;;;;;;;;;;;;;5043327;28;19913;-73
2021/09/11 02:41:28;;;;;;;;;;;;;;;;;;5036190;28;19918;-72
2021/09/11 02:43:53;;;;;;;;;;;;;;;;;;5041386;28;19914;-73
2021/09/11 02:46:18;;;;;;;;;;;;;;;;;;5037292;28;19913;-72
2021/09/11 02:48:44;;;;;;;;;;;;;;;;;;5036953;28;19948;-72
2021/09/11 02:51:11;;;;;;;;;;;;;;;;;;5070586;28;20158;-73
2021/09/11 02:53:36;;;;;;;;;;;;;;;;;;5042725;28;19906;-74
2021/09/11 02:56:01;;;;;;;;;;;;;;;;;;5074982;28;19935;-73
2021/09/11 02:58:29;;;;;;;;;;;;;;;;;;5035983;28;19925;-72
2021/09/11 03:00:54;;;;;;;;;;;;;;;;;;5051994;28;19940;-73
2021/09/11 03:03:22;;;;;;;;;;;;;;;;;;5041338;28;19941;-73
2021/09/11 03:05:47;;;;;;;;;;;;;;;;;;5054508;28;19914;-73
2021/09/11 03:08:12;;;;;;;;;;;;;;;;;;5043640;28;19905;-73
2021/09/11 03:10:37;;;;;;;;;;;;;;;;;;5037447;28;19937;-70
2021/09/11 03:13:03;;;;;;;;;;;;;;;;;;5042944;28;19921;-73
2021/09/11 03:15:28;;;;;;;;;;;;;;;;;;5043000;28;19921;-74
2021/09/11 03:17:53;;;;;;;;;;;;;;;;;;5035152;28;19921;-73
2021/09/11 03:20:18;;;;;;;;;;;;;;;;;;5041842;28;19978;-75
2021/09/11 03:22:45;;;;;;;;;;;;;;;;;;5039643;28;19925;-73
2021/09/11 03:25:10;;;;;;;;;;;;;;;;;;5042041;28;19921;-72
2021/09/11 03:27:36;;;;;;;;;;;;;;;;;;5041249;28;19980;-73
2021/09/11 03:30:01;;;;;;;;;;;;;;;;;;5038876;28;19935;-70
2021/09/11 03:32:26;;;;;;;;;;;;;;;;;;5038730;28;19951;-72
2021/09/11 03:34:51;;;;;;;;;;;;;;;;;;5044464;28;19905;-73
2021/09/11 03:37:17;;;;;;;;;;;;;;;;;;5046939;28;19905;-74
2021/09/11 03:39:44;;;;;;;;;;;;;;;;;;5045250;28;20180;-75
2021/09/11 03:42:09;;;;;;;;;;;;;;;;;;5041021;28;19961;-74
2021/09/11 03:44:35;;;;;;;;;;;;;;;;;;5042093;28;19906;-73
2021/09/11 03:47:00;;;;;;;;;;;;;;;;;;5045760;28;19909;-71
2021/09/11 03:49:25;;;;;;;;;;;;;;;;;;5040267;28;19936;-73
2021/09/11 03:51:51;;;;;;;;;;;;;;;;;;5079648;28;19969;-73
2021/09/11 03:54:16;;;;;;;;;;;;;;;;;;5042566;28;19912;-73
2021/09/11 03:56:41;;;;;;;;;;;;;;;;;;5071624;28;19912;-74
2021/09/11 03:59:07;;;;;;;;;;;;;;;;;;5050178;28;19913;-73
2021/09/11 04:01:32;;;;;;;;;;;;;;;;;;5041330;28;19909;-73
2021/09/11 04:03:57;;;;;;;;;;;;;;;;;;5045455;28;19928;-73
2021/09/11 04:06:22;;;;;;;;;;;;;;;;;;5042301;28;19939;-73
2021/09/11 04:08:47;;;;;;;;;;;;;;;;;;5046561;28;20137;-73
2021/09/11 04:11:13;;;;;;;;;;;;;;;;;;5044460;28;19927;-71
2021/09/11 04:13:38;;;;;;;;;;;;;;;;;;5040421;28;19961;-71
2021/09/11 04:16:03;;;;;;;;;;;;;;;;;;5045511;28;19976;-72
2021/09/11 04:18:28;;;;;;;;;;;;;;;;;;5037030;28;19916;-73
2021/09/11 04:20:56;;;;;;;;;;;;;;;;;;5039053;28;19925;-73
2021/09/11 04:23:21;;;;;;;;;;;;;;;;;;5045585;28;20000;-72
2021/09/11 04:25:46;;;;;;;;;;;;;;;;;;5040307;28;19913;-73
2021/09/11 04:28:11;;;;;;;;;;;;;;;;;;5050301;28;19913;-73
2021/09/11 04:30:37;;;;;;;;;;;;;;;;;;5039328;28;19919;-73
2021/09/11 04:33:02;;;;;;;;;;;;;;;;;;5039839;28;19926;-73
2021/09/11 04:35:27;;;;;;;;;;;;;;;;;;5050538;28;19910;-73
2021/09/11 04:37:52;;;;;;;;;;;;;;;;;;5039547;28;19933;-74
2021/09/11 04:40:17;;;;;;;;;;;;;;;;;;5045785;28;19924;-74
2021/09/11 04:42:43;;;;;;;;;;;;;;;;;;5045746;28;19906;-73
2021/09/11 04:45:08;;;;;;;;;;;;;;;;;;5055782;28;19906;-73
2021/09/11 04:47:33;;;;;;;;;;;;;;;;;;5046079;28;19928;-74
2021/09/11 04:49:58;;;;;;;;;;;;;;;;;;5039298;28;19920;-73
2021/09/11 04:52:24;;;;;;;;;;;;;;;;;;5077372;28;19936;-73
2021/09/11 04:54:49;;;;;;;;;;;;;;;;;;5041509;28;19924;-72
2021/09/11 04:57:14;;;;;;;;;;;;;;;;;;5043882;28;19936;-73
2021/09/11 04:59:39;;;;;;;;;;;;;;;;;;5042676;28;19905;-73
2021/09/11 05:02:05;;;;;;;;;;;;;;;;;;5053461;28;19905;-74
2021/09/11 05:04:30;;;;;;;;;;;;;;;;;;5043924;28;19905;-74
2021/09/11 05:06:55;;;;;;;;;;;;;;;;;;5040606;28;19913;-73
2021/09/11 05:09:21;;;;;;;;;;;;;;;;;;5054688;28;19906;-74
2021/09/11 05:11:46;;;;;;;;;;;;;;;;;;5042759;28;19920;-74
2021/09/11 05:14:11;;;;;;;;;;;;;;;;;;5033015;28;19906;-73
2021/09/11 05:16:36;;;;;;;;;;;;;;;;;;5046979;28;19905;-74
2021/09/11 05:19:02;;;;;;;;;;;;;;;;;;5037878;28;20123;-72
2021/09/11 05:21:27;;;;;;;;;;;;;;;;;;5039065;28;19932;-73
2021/09/11 05:23:52;;;;;;;;;;;;;;;;;;5060397;28;19906;-73
2021/09/11 05:26:17;;;;;;;;;;;;;;;;;;5039700;28;19913;-75
2021/09/11 05:28:43;;;;;;;;;;;;;;;;;;5045813;28;19905;-74
2021/09/11 05:31:08;;;;;;;;;;;;;;;;;;5041434;28;19905;-73
2021/09/11 05:33:33;;;;;;;;;;;;;;;;;;5068836;28;19905;-73
2021/09/11 05:35:58;;;;;;;;;;;;;;;;;;5045438;28;19905;-73
2021/09/11 05:38:24;;;;;;;;;;;;;;;;;;5035770;28;19940;-75
2021/09/11 05:40:51;;;;;;;;;;;;;;;;;;5061635;28;19944;-72
2021/09/11 05:43:16;;;;;;;;;;;;;;;;;;5038596;28;19901;-72
2021/09/11 05:45:42;;;;;;;;;;;;;;;;;;5038880;28;19906;-72
2021/09/11 05:48:07;;;;;;;;;;;;;;;;;;5075594;28;19921;-73
2021/09/11 05:50:32;;;;;;;;;;;;;;;;;;5054221;28;19936;-73
2021/09/11 05:53:00;;;;;;;;;;;;;;;;;;5044510;28;19918;-72
2021/09/11 05:55:25;;;;;;;;;;;;;;;;;;5039912;28;19905;-70
2021/09/11 05:57:50;;;;;;;;;;;;;;;;;;5039059;28;19921;-72
2021/09/11 06:00:15;;;;;;;;;;;;;;;;;;5041982;28;20034;-73
2021/09/11 06:02:41;;;;;;;;;;;;;;;;;;5039853;28;20228;-72
2021/09/11 06:05:06;;;;;;;;;;;;;;;;;;5045253;28;19905;-72
2021/09/11 06:07:31;;;;;;;;;;;;;;;;;;5041235;28;19921;-73
2021/09/11 06:09:56;;;;;;;;;;;;;;;;;;5036954;28;19905;-73
2021/09/11 06:12:21;;;;;;;;;;;;;;;;;;5041637;28;19944;-73
2021/09/11 06:14:49;;;;;;;;;;;;;;;;;;5038040;28;20143;-73
2021/09/11 06:17:14;;;;;;;;;;;;;;;;;;5076779;28;19921;-72
2021/09/11 06:19:42;;;;;;;;;;;;;;;;;;5042617;28;19905;-73
2021/09/11 06:22:11;;;;;;;;;;;;;;;;;;5041372;28;20424;-74
2021/09/11 06:24:37;;;;;;;;;;;;;;;;;;5057015;28;19908;-72
2021/09/11 06:27:05;;;;;;;;;;;;;;;;;;5040839;28;20170;-73
2021/09/11 06:29:30;;;;;;;;;;;;;;;;;;5043297;28;19906;-73
2021/09/11 06:31:55;;;;;;;;;;;;;;;;;;5054659;28;19917;-74
2021/09/11 06:34:20;;;;;;;;;;;;;;;;;;5037986;28;19933;-75
2021/09/11 06:36:45;;;;;;;;;;;;;;;;;;5041421;28;19905;-72
2021/09/11 06:39:11;;;;;;;;;;;;;;;;;;5037995;28;19925;-72
2021/09/11 06:41:36;;;;;;;;;;;;;;;;;;5040601;28;19921;-73
2021/09/11 06:44:04;;;;;;;;;;;;;;;;;;5069794;28;19917;-74
2021/09/11 06:46:29;;;;;;;;;;;;;;;;;;5039014;28;19953;-73
2021/09/11 06:48:54;;;;;;;;;;;;;;;;;;5076730;28;19920;-74
2021/09/11 06:51:19;;;;;;;;;;;;;;;;;;5036693;28;19906;-74
2021/09/11 06:53:45;;;;;;;;;;;;;;;;;;5044086;28;19917;-70
2021/09/11 06:56:10;;;;;;;;;;;;;;;;;;5069873;28;19902;-71
2021/09/11 06:58:35;;;;;;;;;;;;;;;;;;5052761;28;19931;-72
2021/09/11 07:01:00;;;;;;;;;;;;;;;;;;5041723;28;19920;-73
2021/09/11 07:03:26;;;;;;;;;;;;;;;;;;5037140;28;19968;-73
2021/09/11 07:05:51;;;;;;;;;;;;;;;;;;5057532;28;19905;-73
2021/09/11 07:08:16;;;;;;;;;;;;;;;;;;5041494;28;19913;-74
2021/09/11 07:10:41;;;;;;;;;;;;;;;;;;5059005;28;19932;-74
2021/09/11 07:13:07;;;;;;;;;;;;;;;;;;5051723;28;19907;-74
2021/09/11 07:15:32;;;;;;;;;;;;;;;;;;5044252;28;19906;-73
2021/09/11 07:17:57;;;;;;;;;;;;;;;;;;5063355;28;19905;-73
2021/09/11 07:20:24;;;;;;;;;;;;;;;;;;5044475;28;20000;-72
2021/09/11 07:22:50;;;;;;;;;;;;;;;;;;5073259;28;19912;-73
2021/09/11 07:25:15;;;;;;;;;;;;;;;;;;5064488;28;19918;-72
2021/09/11 07:27:40;;;;;;;;;;;;;;;;;;5040012;28;19929;-73
2021/09/11 07:30:05;;;;;;;;;;;;;;;;;;5035613;28;19924;-75
2021/09/11 07:32:30;;;;;;;;;;;;;;;;;;5043089;28;20000;-72
2021/09/11 07:34:56;;;;;;;;;;;;;;;;;;5039377;28;19913;-70
2021/09/11 07:37:21;;;;;;;;;;;;;;;;;;5049985;28;19933;-70
2021/09/11 07:39:47;;;;;;;;;;;;;;;;;;5069370;28;20211;-69
2021/09/11 07:42:12;;;;;;;;;;;;;;;;;;5044461;28;19968;-71
2021/09/11 07:44:40;;;;;;;;;;;;;;;;;;5072855;28;19914;-71
2021/09/11 07:47:05;;;;;;;;;;;;;;;;;;5040814;28;20208;-70
2021/09/11 07:49:30;;;;;;;;;;;;;;;;;;5048495;28;19921;-70
2021/09/11 07:51:55;;;;;;;;;;;;;;;;;;5036829;28;19913;-72
2021/09/11 07:54:21;;;;;;;;;;;;;;;;;;5046840;28;19928;-72
2021/09/11 07:56:46;;;;;;;;;;;;;;;;;;5040514;28;19906;-67
2021/09/11 07:59:11;;;;;;;;;;;;;;;;;;5043396;28;19948;-72
2021/09/11 08:01:38;;;;;;;;;;;;;;;;;;5045794;28;19915;-70
2021/09/11 08:04:06;;;;;;;;;;;;;;;;;;5041166;28;19909;-70
2021/09/11 08:06:31;;;;;;;;;;;;;;;;;;5045191;28;19913;-71
2021/09/11 08:08:56;;;;;;;;;;;;;;;;;;5040436;28;19906;-68
2021/09/11 08:11:22;;;;;;;;;;;;;;;;;;5070204;28;19956;-69
2021/09/11 08:13:47;;;;;;;;;;;;;;;;;;5051947;28;19920;-71
2021/09/11 08:16:12;;;;;;;;;;;;;;;;;;5040083;28;19921;-71
2021/09/11 08:18:37;;;;;;;;;;;;;;;;;;5079030;28;20016;-72
2021/09/11 08:21:04;;;;;;;;;;;;;;;;;;5043822;28;19906;-70
2021/09/11 08:23:29;;;;;;;;;;;;;;;;;;5039562;28;19972;-71
2021/09/11 08:25:54;;;;;;;;;;;;;;;;;;5044607;28;19941;-72
2021/09/11 08:28:19;;;;;;;;;;;;;;;;;;5039866;28;19921;-71
2021/09/11 08:30:45;;;;;;;;;;;;;;;;;;5045993;28;19913;-70
2021/09/11 08:33:10;;;;;;;;;;;;;;;;;;5039970;28;19960;-73
2021/09/11 08:35:35;;;;;;;;;;;;;;;;;;5065862;28;19929;-75
2021/09/11 08:38:01;;;;;;;;;;;;;;;;;;5047394;28;19912;-73
2021/09/11 08:40:26;;;;;;;;;;;;;;;;;;5044542;28;19913;-74
2021/09/11 08:42:51;;;;;;;;;;;;;;;;;;5045095;28;19913;-74
2021/09/11 08:45:16;;;;;;;;;;;;;;;;;;5039912;28;19976;-72
2021/09/11 08:47:42;;;;;;;;;;;;;;;;;;5053537;28;19922;-73
2021/09/11 08:50:07;;;;;;;;;;;;;;;;;;5061335;28;19918;-73
2021/09/11 08:52:32;;;;;;;;;;;;;;;;;;5040845;28;19906;-72
2021/09/11 08:54:57;;;;;;;;;;;;;;;;;;5044706;28;19906;-71
2021/09/11 08:57:25;;;;;;;;;;;;;;;;;;5070650;28;19905;-74
2021/09/11 08:59:50;;;;;;;;;;;;;;;;;;5040702;28;19906;-73
2021/09/11 09:02:15;;;;;;;;;;;;;;;;;;5074053;28;19913;-73
2021/09/11 09:04:41;;;;;;;;;;;;;;;;;;5038464;28;19988;-72
2021/09/11 09:07:06;;;;;;;;;;;;;;;;;;5046127;28;19914;-73
2021/09/11 09:09:31;;;;;;;;;;;;;;;;;;5037750;28;19905;-72
2021/09/11 09:11:56;;;;;;;;;;;;;;;;;;5036459;28;19906;-69
2021/09/11 09:14:23;;;;;;;;;;;;;;;;;;5061870;28;19979;-70
2021/09/11 09:16:50;;;;;;;;;;;;;;;;;;5038598;28;20208;-75
2021/09/11 09:19:15;;;;;;;;;;;;;;;;;;5045140;28;19917;-74
2021/09/11 09:21:41;;;;;;;;;;;;;;;;;;5038304;28;19928;-75
2021/09/11 09:24:08;;;;;;;;;;;;;;;;;;5039410;28;19937;-74
2021/09/11 09:26:33;;;;;;;;;;;;;;;;;;5042428;28;19929;-74
2021/09/11 09:28:59;;;;;;;;;;;;;;;;;;5036541;28;19906;-75
2021/09/11 09:31:24;;;;;;;;;;;;;;;;;;5039317;28;20027;-75
2021/09/11 09:33:49;;;;;;;;;;;;;;;;;;5041315;28;20068;-75
2021/09/11 09:36:14;;;;;;;;;;;;;;;;;;5037990;28;19928;-75
2021/09/11 09:38:40;;;;;;;;;;;;;;;;;;5042265;28;20249;-75
2021/09/11 09:41:05;;;;;;;;;;;;;;;;;;5038807;28;19916;-75
2021/09/11 09:43:30;;;;;;;;;;;;;;;;;;5056378;28;19902;-75
2021/09/11 09:45:55;;;;;;;;;;;;;;;;;;5042889;28;19921;-75
2021/09/11 09:48:21;;;;;;;;;;;;;;;;;;5037582;28;19939;-73
2021/09/11 09:50:46;;;;;;;;;;;;;;;;;;5041530;28;19905;-74
2021/09/11 09:53:13;;;;;;;;;;;;;;;;;;5052325;28;19940;-75
2021/09/11 09:55:40;;;;;;;;;;;;;;;;;;5042406;28;19980;-73
2021/09/11 09:58:05;;;;;;;;;;;;;;;;;;5041314;28;20006;-74
2021/09/11 10:00:30;;;;;;;;;;;;;;;;;;5037723;28;19905;-74
2021/09/11 10:02:55;;;;;;;;;;;;;;;;;;5075359;28;19917;-70
2021/09/11 10:05:21;;;;;;;;;;;;;;;;;;5038720;28;19921;-72
2021/09/11 10:07:46;;;;;;;;;;;;;;;;;;5068503;28;19972;-75
2021/09/11 10:10:11;;;;;;;;;;;;;;;;;;5045086;28;19913;-74
2021/09/11 10:12:36;;;;;;;;;;;;;;;;;;5038047;28;19944;-75
2021/09/11 10:15:02;;;;;;;;;;;;;;;;;;5047782;28;20016;-75
2021/09/11 10:17:27;;;;;;;;;;;;;;;;;;5037172;28;20036;-72
2021/09/11 10:19:52;;;;;;;;;;;;;;;;;;5069431;28;19905;-73
2021/09/11 10:22:22;;;;;;;;;;;;;;;;;;5043399;28;19905;-73
2021/09/11 10:24:47;;;;;;;;;;;;;;;;;;5036097;28;19979;-73
2021/09/11 10:27:12;;;;;;;;;;;;;;;;;;5046944;28;19913;-73
2021/09/11 10:29:38;;;;;;;;;;;;;;;;;;5036777;28;19916;-73
2021/09/11 10:32:03;;;;;;;;;;;;;;;;;;5037184;28;19940;-74
2021/09/11 10:34:28;;;;;;;;;;;;;;;;;;5061848;28;20320;-73
2021/09/11 10:36:54;;;;;;;;;;;;;;;;;;5036637;28;19918;-73
2021/09/11 10:39:19;;;;;;;;;;;;;;;;;;5044887;28;19928;-69
2021/09/11 10:41:44;;;;;;;;;;;;;;;;;;5033324;28;19969;-72
2021/09/11 10:44:09;;;;;;;;;;;;;;;;;;5068744;28;19912;-73
2021/09/11 10:46:35;;;;;;;;;;;;;;;;;;5076018;28;19948;-72
2021/09/11 10:49:00;;;;;;;;;;;;;;;;;;5036035;28;19923;-72
2021/09/11 10:51:28;;;;;;;;;;;;;;;;;;5043504;28;19936;-73
2021/09/11 10:53:53;;;;;;;;;;;;;;;;;;5052067;28;19905;-73
2021/09/11 10:56:18;;;;;;;;;;;;;;;;;;5036362;28;19912;-71
2021/09/11 10:58:43;;;;;;;;;;;;;;;;;;5046228;28;19921;-72
2021/09/11 11:01:08;;;;;;;;;;;;;;;;;;5035481;28;19917;-72
2021/09/11 11:03:34;;;;;;;;;;;;;;;;;;5045550;28;19913;-72
2021/09/11 11:06:00;;;;;;;;;;;;;;;;;;5051636;28;19905;-72
2021/09/11 11:08:25;;;;;;;;;;;;;;;;;;5036211;28;19916;-73
2021/09/11 11:10:50;;;;;;;;;;;;;;;;;;5041795;28;19944;-72
2021/09/11 11:13:15;;;;;;;;;;;;;;;;;;5038560;28;19925;-73
2021/09/11 11:15:41;;;;;;;;;;;;;;;;;;5042278;28;19905;-73
2021/09/11 11:18:06;;;;;;;;;;;;;;;;;;5038770;28;19924;-69
2021/09/11 11:20:31;;;;;;;;;;;;;;;;;;5034649;28;19906;-71
2021/09/11 11:22:56;;;;;;;;;;;;;;;;;;5046816;28;19948;-73
2021/09/11 11:25:22;;;;;;;;;;;;;;;;;;5037046;28;20241;-72
2021/09/11 11:27:47;;;;;;;;;;;;;;;;;;5040226;28;19949;-73
2021/09/11 11:30:12;;;;;;;;;;;;;;;;;;5038305;28;19912;-72
2021/09/11 11:32:38;;;;;;;;;;;;;;;;;;5036534;28;19914;-73
2021/09/11 11:35:03;;;;;;;;;;;;;;;;;;5042282;28;19916;-73
2021/09/11 11:37:28;;;;;;;;;;;;;;;;;;5035908;28;19985;-73
2021/09/11 11:39:56;;;;;;;;;;;;;;;;;;5041198;28;19999;-73
2021/09/11 11:42:21;;;;;;;;;;;;;;;;;;5038241;28;19921;-72
2021/09/11 11:44:46;;;;;;;;;;;;;;;;;;5038455;28;19941;-73
2021/09/11 11:47:12;;;;;;;;;;;;;;;;;;5041331;28;19921;-74
2021/09/11 11:49:37;;;;;;;;;;;;;;;;;;5037170;28;19992;-73
2021/09/11 11:52:02;;;;;;;;;;;;;;;;;;5042827;28;19905;-73
2021/09/11 11:54:28;;;;;;;;;;;;;;;;;;5040192;28;19916;-73
2021/09/11 11:56:53;;;;;;;;;;;;;;;;;;5043559;28;20330;-73
2021/09/11 11:59:18;;;;;;;;;;;;;;;;;;5029537;28;19917;-71
2021/09/11 12:01:43;;;;;;;;;;;;;;;;;;5043704;28;19921;-73
2021/09/11 12:04:09;;;;;;;;;;;;;;;;;;5044349;28;19944;-73
2021/09/11 12:06:34;;;;;;;;;;;;;;;;;;5041078;28;19920;-73
2021/09/11 12:08:59;;;;;;;;;;;;;;;;;;5039470;28;20245;-73
2021/09/11 12:11:24;;;;;;;;;;;;;;;;;;5061744;28;19934;-72
2021/09/11 12:13:49;;;;;;;;;;;;;;;;;;5042819;28;19921;-75
2021/09/11 12:16:15;;;;;;;;;;;;;;;;;;5047415;28;20190;-75
2021/09/11 12:18:40;;;;;;;;;;;;;;;;;;5039549;28;19905;-75
2021/09/11 12:21:05;;;;;;;;;;;;;;;;;;5043724;28;19913;-75
2021/09/11 12:23:30;;;;;;;;;;;;;;;;;;5048756;28;19901;-72
2021/09/11 12:25:56;;;;;;;;;;;;;;;;;;5040599;28;19977;-73
2021/09/11 12:28:21;;;;;;;;;;;;;;;;;;5047878;28;19933;-75
2021/09/11 12:30:46;;;;;;;;;;;;;;;;;;5042112;28;19905;-74
2021/09/11 12:33:11;;;;;;;;;;;;;;;;;;5040734;28;19913;-75
2021/09/11 12:35:37;;;;;;;;;;;;;;;;;;5042532;28;19917;-75
2021/09/11 12:38:02;;;;;;;;;;;;;;;;;;5037795;28;20159;-75
2021/09/11 12:40:27;;;;;;;;;;;;;;;;;;5048881;28;19908;-75
2021/09/11 12:42:52;;;;;;;;;;;;;;;;;;5042901;28;19927;-75
2021/09/11 12:45:18;;;;;;;;;;;;;;;;;;5072614;28;19921;-75
2021/09/11 12:47:43;;;;;;;;;;;;;;;;;;5045541;28;19992;-72
2021/09/11 12:50:08;;;;;;;;;;;;;;;;;;5042544;28;20095;-71
2021/09/11 12:52:33;;;;;;;;;;;;;;;;;;5047492;28;19925;-75
2021/09/11 12:54:59;;;;;;;;;;;;;;;;;;5057498;28;19905;-74
2021/09/11 12:57:25;;;;;;;;;;;;;;;;;;5037585;28;20258;-74
2021/09/11 12:59:50;;;;;;;;;;;;;;;;;;5045860;28;20001;-74
2021/09/11 13:02:17;;;;;;;;;;;;;;;;;;5042759;28;19925;-75
2021/09/11 13:04:42;;;;;;;;;;;;;;;;;;5045169;28;19916;-75
2021/09/11 13:07:07;;;;;;;;;;;;;;;;;;5037631;28;19910;-73
2021/09/11 13:09:33;;;;;;;;;;;;;;;;;;5039822;28;19982;-73
2021/09/11 13:12:01;;;;;;;;;;;;;;;;;;5044312;28;19906;-74
2021/09/11 13:14:26;;;;;;;;;;;;;;;;;;5039164;28;19913;-74
2021/09/11 13:16:51;;;;;;;;;;;;;;;;;;5045142;28;19902;-74
2021/09/11 13:19:17;;;;;;;;;;;;;;;;;;5069846;28;19911;-75
2021/09/11 13:21:42;;;;;;;;;;;;;;;;;;5038943;28;19936;-72
2021/09/11 13:24:07;;;;;;;;;;;;;;;;;;5046259;28;19948;-73
2021/09/11 13:26:32;;;;;;;;;;;;;;;;;;5053894;28;19985;-74
2021/09/11 13:28:57;;;;;;;;;;;;;;;;;;5045659;28;19901;-75
2021/09/11 13:31:23;;;;;;;;;;;;;;;;;;5042862;28;19952;-74
2021/09/11 13:33:48;;;;;;;;;;;;;;;;;;5044154;28;19925;-75
2021/09/11 13:36:14;;;;;;;;;;;;;;;;;;5045627;28;19917;-75
2021/09/11 13:38:39;;;;;;;;;;;;;;;;;;5040762;28;19912;-74
2021/09/11 13:41:06;;;;;;;;;;;;;;;;;;5047407;28;19906;-74
2021/09/11 13:43:31;;;;;;;;;;;;;;;;;;5038972;28;19916;-73
2021/09/11 13:45:56;;;;;;;;;;;;;;;;;;5038076;28;19925;-73
2021/09/11 13:48:24;;;;;;;;;;;;;;;;;;5042947;28;19955;-74
2021/09/11 13:50:49;;;;;;;;;;;;;;;;;;5039063;28;20091;-74
2021/09/11 13:53:14;;;;;;;;;;;;;;;;;;5044964;28;19905;-75
2021/09/11 13:55:39;;;;;;;;;;;;;;;;;;5070419;28;19944;-73
2021/09/11 13:58:05;;;;;;;;;;;;;;;;;;5054142;28;20333;-70
2021/09/11 14:00:30;;;;;;;;;;;;;;;;;;5043423;28;19944;-71
2021/09/11 14:02:57;;;;;;;;;;;;;;;;;;5042069;28;20397;-71
2021/09/11 14:05:22;;;;;;;;;;;;;;;;;;5075903;28;19927;-70
2021/09/11 14:07:47;;;;;;;;;;;;;;;;;;5037560;28;19944;-70
2021/09/11 14:10:13;;;;;;;;;;;;;;;;;;5037092;28;19905;-70
2021/09/11 14:12:38;;;;;;;;;;;;;;;;;;5041632;28;19928;-75
2021/09/11 14:15:03;;;;;;;;;;;;;;;;;;5038604;28;19952;-72
2021/09/11 14:17:29;;;;;;;;;;;;;;;;;;5044185;28;19952;-70
2021/09/11 14:19:54;;;;;;;;;;;;;;;;;;5066415;28;19922;-70
2021/09/11 14:22:19;;;;;;;;;;;;;;;;;;5038102;28;19929;-74
2021/09/11 14:24:47;;;;;;;;;;;;;;;;;;5040472;28;20107;-71
2021/09/11 14:27:12;;;;;;;;;;;;;;;;;;5037929;28;19996;-71
2021/09/11 14:29:37;;;;;;;;;;;;;;;;;;5040895;28;19924;-72
2021/09/11 14:32:02;;;;;;;;;;;;;;;;;;5039158;28;19916;-71
2021/09/11 14:34:28;;;;;;;;;;;;;;;;;;5036577;28;19901;-69
2021/09/11 14:36:53;;;;;;;;;;;;;;;;;;5041824;28;19936;-71
2021/09/11 14:39:18;;;;;;;;;;;;;;;;;;5035940;28;19993;-71
2021/09/11 14:41:43;;;;;;;;;;;;;;;;;;5040772;28;19972;-71
2021/09/11 14:44:09;;;;;;;;;;;;;;;;;;5053945;28;19917;-71
2021/09/11 14:46:34;;;;;;;;;;;;;;;;;;5036581;28;19913;-72
2021/09/11 14:48:59;;;;;;;;;;;;;;;;;;5030608;28;19931;-70
2021/09/11 14:51:24;;;;;;;;;;;;;;;;;;5037800;28;20018;-70
2021/09/11 14:53:50;;;;;;;;;;;;;;;;;;5043904;28;19933;-70
2021/09/11 14:56:18;;;;;;;;;;;;;;;;;;5050929;28;19912;-71
2021/09/11 14:58:43;;;;;;;;;;;;;;;;;;5036725;28;19906;-70
2021/09/11 15:01:09;;;;;;;;;;;;;;;;;;5058258;28;19913;-70
2021/09/11 15:03:35;;;;;;;;;;;;;;;;;;5042962;28;19963;-70
2021/09/11 15:06:00;;;;;;;;;;;;;;;;;;5056908;28;19973;-71
2021/09/11 15:08:25;;;;;;;;;;;;;;;;;;5066167;28;19972;-71
2021/09/11 15:10:51;;;;;;;;;;;;;;;;;;5037833;28;19913;-68
2021/09/11 15:13:16;;;;;;;;;;;;;;;;;;5043098;28;19925;-69
2021/09/11 15:15:41;;;;;;;;;;;;;;;;;;5038050;28;20189;-69
2021/09/11 15:18:06;;;;;;;;;;;;;;;;;;5043384;28;19917;-69
2021/09/11 15:20:32;;;;;;;;;;;;;;;;;;5037296;28;19905;-69
2021/09/11 15:22:57;;;;;;;;;;;;;;;;;;5035537;28;19913;-69
2021/09/11 15:25:22;;;;;;;;;;;;;;;;;;5045275;28;19912;-70
2021/09/11 15:27:51;;;;;;;;;;;;;;;;;;5034370;28;19920;-70
2021/09/11 15:30:16;;;;;;;;;;;;;;;;;;5042264;28;19922;-70
2021/09/11 15:32:41;;;;;;;;;;;;;;;;;;5039947;28;19905;-69
2021/09/11 15:35:07;;;;;;;;;;;;;;;;;;5039089;28;19917;-71
2021/09/11 15:37:32;;;;;;;;;;;;;;;;;;5045659;28;19905;-73
2021/09/11 15:39:57;;;;;;;;;;;;;;;;;;5037829;28;19928;-69
2021/09/11 15:42:22;;;;;;;;;;;;;;;;;;5043477;28;20042;-68
2021/09/11 15:44:48;;;;;;;;;;;;;;;;;;5040801;28;19905;-68
2021/09/11 15:47:14;;;;;;;;;;;;;;;;;;5071755;28;19917;-68
2021/09/11 15:49:39;;;;;;;;;;;;;;;;;;5045578;28;19952;-68
2021/09/11 15:52:04;;;;;;;;;;;;;;;;;;5039110;28;19909;-68
2021/09/11 15:54:30;;;;;;;;;;;;;;;;;;5043008;28;19918;-68
2021/09/11 15:56:57;;;;;;;;;;;;;;;;;;5040957;28;19925;-70
2021/09/11 15:59:22;;;;;;;;;;;;;;;;;;5038389;28;19909;-69
2021/09/11 16:01:48;;;;;;;;;;;;;;;;;;5045821;28;19948;-71
2021/09/11 16:04:13;;;;;;;;;;;;;;;;;;5040203;28;19916;-67
2021/09/11 16:06:38;;;;;;;;;;;;;;;;;;5043163;28;19977;-69
2021/09/11 16:09:06;;;;;;;;;;;;;;;;;;5048739;28;19915;-69
2021/09/11 16:11:31;;;;;;;;;;;;;;;;;;5040054;28;19906;-69
2021/09/11 16:13:56;;;;;;;;;;;;;;;;;;5074295;28;20214;-69
2021/09/11 16:16:22;;;;;;;;;;;;;;;;;;5071503;28;20142;-73
2021/09/11 16:18:49;;;;;;;;;;;;;;;;;;5037600;28;19906;-71
2021/09/11 16:21:17;;;;;;;;;;;;;;;;;;5034726;28;19913;-69
2021/09/11 16:23:42;;;;;;;;;;;;;;;;;;5039019;28;20180;-69
2021/09/11 16:26:07;;;;;;;;;;;;;;;;;;5045397;28;19913;-69
2021/09/11 16:28:32;;;;;;;;;;;;;;;;;;5042982;28;20225;-70
2021/09/11 16:30:58;;;;;;;;;;;;;;;;;;5041263;28;19914;-70
2021/09/11 16:33:23;;;;;;;;;;;;;;;;;;5076607;28;19909;-70